sensor_id;sensor_type;location;lat;lon;timestamp;pressure;altitude;pressure_sealevel;temperature;humidity
36932;BME280;22847;42.654;23.370;2022-08-20T00:00:08;93949.63;;;24.33;46.17
36932;BME280;22847;42.654;23.370;2022-08-20T00:02:43;94237.47;;;26.15;46.36
36932;BME280;22847;42.654;23.370;2022-08-20T00:05:09;94292.84;;;26.42;45.89
36932;BME280;22847;42.654;23.370;2022-08-20T00:07:35;94316.34;;;26.67;45.98
36932;BME280;22847;42.654;23.370;2022-08-20T00:10:01;94291.03;;;27.01;44.83
36932;BME280;22847;42.654;23.370;2022-08-20T00:12:26;94245.31;;;25.79;46.98
36932;BME280;22847;42.654;23.370;2022-08-20T00:14:52;94088.34;;;24.43;48.06
36932;BME280;22847;42.654;23.370;2022-08-20T00:17:17;94251.75;;;26.04;46.94
36932;BME280;22847;42.654;23.370;2022-08-20T00:19:43;94304.16;;;25.84;48.24
36932;BME280;22847;42.654;23.370;2022-08-20T00:22:09;94306.31;;;26.08;47.53
36932;BME280;22847;42.654;23.370;2022-08-20T00:24:34;94244.72;;;25.55;48.11
36932;BME280;22847;42.654;23.370;2022-08-20T00:27:00;94256.22;;;25.55;48.27
36932;BME280;22847;42.654;23.370;2022-08-20T00:29:26;94122.50;;;24.80;48.03
36932;BME280;22847;42.654;23.370;2022-08-20T00:31:51;94283.38;;;25.52;48.48
36932;BME280;22847;42.654;23.370;2022-08-20T00:34:18;94142.13;;;24.74;48.80
36932;BME280;22847;42.654;23.370;2022-08-20T00:36:43;94299.53;;;25.79;48.49
36932;BME280;22847;42.654;23.370;2022-08-20T00:39:09;94152.28;;;24.77;49.06
36932;BME280;22847;42.654;23.370;2022-08-20T00:41:34;94271.78;;;25.25;49.53
36932;BME280;22847;42.654;23.370;2022-08-20T00:44:10;94294.50;;;25.83;48.62
36932;BME280;22847;42.654;23.370;2022-08-20T00:46:36;94270.97;;;26.01;47.77
36932;BME280;22847;42.654;23.370;2022-08-20T00:49:04;94295.00;;;25.80;48.76
36932;BME280;22847;42.654;23.370;2022-08-20T00:51:34;94287.91;;;26.12;48.15
36932;BME280;22847;42.654;23.370;2022-08-20T00:56:41;94280.00;;;25.40;49.96
36932;BME280;22847;42.654;23.370;2022-08-20T00:59:11;94093.47;;;23.83;50.94
36932;BME280;22847;42.654;23.370;2022-08-20T01:01:40;94248.28;;;24.88;50.93
36932;BME280;22847;42.654;23.370;2022-08-20T01:04:07;94298.16;;;25.21;50.63
36932;BME280;22847;42.654;23.370;2022-08-20T01:06:36;94096.53;;;23.75;51.32
36932;BME280;22847;42.654;23.370;2022-08-20T01:09:03;94286.81;;;24.81;51.83
36932;BME280;22847;42.654;23.370;2022-08-20T01:11:29;94285.47;;;24.67;52.19
36932;BME280;22847;42.654;23.370;2022-08-20T01:14:05;94276.38;;;24.79;52.16
36932;BME280;22847;42.654;23.370;2022-08-20T01:16:57;94274.97;;;24.77;51.75
36932;BME280;22847;42.654;23.370;2022-08-20T01:19:30;94244.00;;;24.59;52.17
36932;BME280;22847;42.654;23.370;2022-08-20T01:21:58;94266.25;;;24.65;51.86
36932;BME280;22847;42.654;23.370;2022-08-20T01:24:35;94225.84;;;24.73;51.35
36932;BME280;22847;42.654;23.370;2022-08-20T01:27:04;94296.78;;;25.02;51.25
36932;BME280;22847;42.654;23.370;2022-08-20T01:29:39;94269.25;;;25.35;50.53
36932;BME280;22847;42.654;23.370;2022-08-20T01:32:05;94301.72;;;24.82;52.08
36932;BME280;22847;42.654;23.370;2022-08-20T01:34:31;94236.50;;;24.73;51.61
36932;BME280;22847;42.654;23.370;2022-08-20T01:36:57;94243.28;;;24.47;52.50
36932;BME280;22847;42.654;23.370;2022-08-20T01:39:26;94217.72;;;24.18;52.99
36932;BME280;22847;42.654;23.370;2022-08-20T01:42:12;94058.22;;;23.48;52.25
36932;BME280;22847;42.654;23.370;2022-08-20T01:44:40;94292.13;;;24.81;52.19
36932;BME280;22847;42.654;23.370;2022-08-20T01:47:33;94235.41;;;25.02;51.10
36932;BME280;22847;42.654;23.370;2022-08-20T01:50:07;94091.50;;;23.79;52.06
36932;BME280;22847;42.654;23.370;2022-08-20T01:55:37;94257.88;;;25.06;51.63
36932;BME280;22847;42.654;23.370;2022-08-20T01:58:03;94240.38;;;24.49;52.71
36932;BME280;22847;42.654;23.370;2022-08-20T02:00:29;94269.31;;;24.57;52.79
36932;BME280;22847;42.654;23.370;2022-08-20T02:02:54;94143.84;;;23.73;52.94
36932;BME280;22847;42.654;23.370;2022-08-20T02:05:20;94043.69;;;24.00;51.08
36932;BME280;22847;42.654;23.370;2022-08-20T02:07:45;94253.84;;;24.87;52.16
36932;BME280;22847;42.654;23.370;2022-08-20T02:10:13;94248.53;;;24.59;53.12
36932;BME280;22847;42.654;23.370;2022-08-20T02:12:39;94209.75;;;24.34;53.27
36932;BME280;22847;42.654;23.370;2022-08-20T02:15:06;94278.53;;;24.37;53.95
36932;BME280;22847;42.654;23.370;2022-08-20T02:17:36;94234.13;;;24.26;54.01
36932;BME280;22847;42.654;23.370;2022-08-20T02:20:26;94273.97;;;24.50;53.45
36932;BME280;22847;42.654;23.370;2022-08-20T02:22:55;94203.38;;;24.35;53.14
36932;BME280;22847;42.654;23.370;2022-08-20T02:25:23;94275.06;;;24.82;52.80
36932;BME280;22847;42.654;23.370;2022-08-20T02:27:50;94246.44;;;25.27;51.44
36932;BME280;22847;42.654;23.370;2022-08-20T02:30:22;94206.13;;;24.74;51.69
36932;BME280;22847;42.654;23.370;2022-08-20T02:32:48;94221.72;;;24.65;52.46
36932;BME280;22847;42.654;23.370;2022-08-20T02:35:14;94172.53;;;23.83;53.65
36932;BME280;22847;42.654;23.370;2022-08-20T02:37:41;94242.66;;;24.57;53.44
36932;BME280;22847;42.654;23.370;2022-08-20T02:40:09;94241.84;;;24.56;53.35
36932;BME280;22847;42.654;23.370;2022-08-20T02:42:35;94251.19;;;24.59;53.29
36932;BME280;22847;42.654;23.370;2022-08-20T02:45:11;94187.84;;;24.32;53.19
36932;BME280;22847;42.654;23.370;2022-08-20T02:47:37;94211.47;;;24.40;53.49
36932;BME280;22847;42.654;23.370;2022-08-20T02:50:04;94194.59;;;24.23;53.90
36932;BME280;22847;42.654;23.370;2022-08-20T02:52:30;94233.44;;;25.14;51.77
36932;BME280;22847;42.654;23.370;2022-08-20T02:54:56;94184.53;;;23.97;53.79
36932;BME280;22847;42.654;23.370;2022-08-20T02:57:22;94253.75;;;24.37;54.35
36932;BME280;22847;42.654;23.370;2022-08-20T02:59:48;94247.03;;;24.79;52.96
36932;BME280;22847;42.654;23.370;2022-08-20T03:02:16;94249.16;;;25.11;52.22
36932;BME280;22847;42.654;23.370;2022-08-20T03:04:43;94253.44;;;24.95;52.54
36932;BME280;22847;42.654;23.370;2022-08-20T03:07:09;94256.09;;;24.95;52.68
36932;BME280;22847;42.654;23.370;2022-08-20T03:09:35;94194.56;;;24.85;51.90
36932;BME280;22847;42.654;23.370;2022-08-20T03:12:01;94251.53;;;24.79;52.45
36932;BME280;22847;42.654;23.370;2022-08-20T03:14:27;94280.56;;;25.42;51.33
36932;BME280;22847;42.654;23.370;2022-08-20T03:16:52;94238.91;;;25.80;50.05
36932;BME280;22847;42.654;23.370;2022-08-20T03:19:18;94245.34;;;25.07;52.21
36932;BME280;22847;42.654;23.370;2022-08-20T03:21:44;94230.28;;;25.17;51.71
36932;BME280;22847;42.654;23.370;2022-08-20T03:24:09;94060.66;;;23.49;53.24
36932;BME280;22847;42.654;23.370;2022-08-20T03:26:35;94281.22;;;24.37;54.50
36932;BME280;22847;42.654;23.370;2022-08-20T03:29:01;94218.75;;;24.05;55.13
36932;BME280;22847;42.654;23.370;2022-08-20T03:31:27;94264.03;;;23.65;57.39
36932;BME280;22847;42.654;23.370;2022-08-20T03:33:53;94287.28;;;23.70;57.29
36932;BME280;22847;42.654;23.370;2022-08-20T03:36:21;94261.97;;;23.67;57.50
36932;BME280;22847;42.654;23.370;2022-08-20T03:38:46;94301.72;;;23.97;56.46
36932;BME280;22847;42.654;23.370;2022-08-20T03:41:11;94219.97;;;23.58;57.00
36932;BME280;22847;42.654;23.370;2022-08-20T03:43:37;94276.03;;;23.91;56.60
36932;BME280;22847;42.654;23.370;2022-08-20T03:46:03;94266.91;;;24.15;55.74
36932;BME280;22847;42.654;23.370;2022-08-20T03:48:29;94064.63;;;22.95;55.73
36932;BME280;22847;42.654;23.370;2022-08-20T03:50:55;94239.63;;;24.08;55.77
36932;BME280;22847;42.654;23.370;2022-08-20T03:53:24;94272.09;;;24.50;54.73
36932;BME280;22847;42.654;23.370;2022-08-20T03:55:50;94231.03;;;24.06;55.29
36932;BME280;22847;42.654;23.370;2022-08-20T03:58:20;93982.88;;;22.39;55.33
36932;BME280;22847;42.654;23.370;2022-08-20T04:00:48;94284.06;;;24.48;54.72
36932;BME280;22847;42.654;23.370;2022-08-20T04:03:15;94118.44;;;24.11;52.98
36932;BME280;22847;42.654;23.370;2022-08-20T04:05:41;94153.78;;;24.18;53.18
36932;BME280;22847;42.654;23.370;2022-08-20T04:08:10;94222.44;;;24.44;53.71
36932;BME280;22847;42.654;23.370;2022-08-20T04:10:36;94086.19;;;23.79;53.48
36932;BME280;22847;42.654;23.370;2022-08-20T04:13:03;94115.97;;;24.21;52.81
36932;BME280;22847;42.654;23.370;2022-08-20T04:15:29;94070.16;;;23.34;54.07
36932;BME280;22847;42.654;23.370;2022-08-20T04:17:56;94270.56;;;24.99;53.31
36932;BME280;22847;42.654;23.370;2022-08-20T04:20:23;94232.88;;;24.62;53.78
36932;BME280;22847;42.654;23.370;2022-08-20T04:22:51;93946.56;;;22.56;54.40
36932;BME280;22847;42.654;23.370;2022-08-20T04:25:18;94282.91;;;24.72;54.53
36932;BME280;22847;42.654;23.370;2022-08-20T04:27:43;94304.03;;;25.23;52.98
36932;BME280;22847;42.654;23.370;2022-08-20T04:30:11;94253.13;;;25.63;51.59
36932;BME280;22847;42.654;23.370;2022-08-20T04:32:39;94271.81;;;25.85;50.92
36932;BME280;22847;42.654;23.370;2022-08-20T04:35:07;94265.06;;;26.21;49.92
36932;BME280;22847;42.654;23.370;2022-08-20T04:37:33;94296.59;;;26.94;48.69
36932;BME280;22847;42.654;23.370;2022-08-20T04:40:04;94288.19;;;27.91;46.02
36932;BME280;22847;42.654;23.370;2022-08-20T04:42:49;94211.69;;;28.41;43.79
36932;BME280;22847;42.654;23.370;2022-08-20T04:45:14;94236.72;;;29.02;42.84
36932;BME280;22847;42.654;23.370;2022-08-20T04:47:40;94265.72;;;29.31;42.18
36932;BME280;22847;42.654;23.370;2022-08-20T04:50:11;94258.44;;;29.56;41.73
36932;BME280;22847;42.654;23.370;2022-08-20T04:52:36;94274.75;;;29.85;40.89
36932;BME280;22847;42.654;23.370;2022-08-20T04:55:03;94277.72;;;29.84;41.88
36932;BME280;22847;42.654;23.370;2022-08-20T04:57:29;94275.88;;;29.64;42.33
36932;BME280;22847;42.654;23.370;2022-08-20T04:59:55;94280.47;;;29.43;42.73
36932;BME280;22847;42.654;23.370;2022-08-20T05:02:21;94139.81;;;28.53;42.71
36932;BME280;22847;42.654;23.370;2022-08-20T05:04:47;94234.44;;;28.18;44.81
36932;BME280;22847;42.654;23.370;2022-08-20T05:07:14;93974.72;;;26.57;44.81
36932;BME280;22847;42.654;23.370;2022-08-20T05:09:41;94132.78;;;26.24;48.37
36932;BME280;22847;42.654;23.370;2022-08-20T05:12:08;94067.50;;;25.61;48.99
36932;BME280;22847;42.654;23.370;2022-08-20T05:14:33;94234.06;;;27.05;47.80
36932;BME280;22847;42.654;23.370;2022-08-20T05:17:05;94297.84;;;27.50;47.40
36932;BME280;22847;42.654;23.370;2022-08-20T05:19:33;94308.41;;;28.14;46.34
36932;BME280;22847;42.654;23.370;2022-08-20T05:22:00;94288.22;;;28.07;46.05
36932;BME280;22847;42.654;23.370;2022-08-20T05:24:25;94289.59;;;28.81;44.69
36932;BME280;22847;42.654;23.370;2022-08-20T05:26:51;94078.75;;;26.22;47.54
36932;BME280;22847;42.654;23.370;2022-08-20T05:29:19;94166.88;;;26.70;48.08
36932;BME280;22847;42.654;23.370;2022-08-20T05:31:46;94067.91;;;25.74;48.84
36932;BME280;22847;42.654;23.370;2022-08-20T05:34:12;94264.25;;;27.38;48.63
36932;BME280;22847;42.654;23.370;2022-08-20T05:36:40;94256.38;;;27.58;48.10
36932;BME280;22847;42.654;23.370;2022-08-20T05:39:07;94231.34;;;27.94;46.50
36932;BME280;22847;42.654;23.370;2022-08-20T05:41:33;94244.25;;;28.03;46.62
36932;BME280;22847;42.654;23.370;2022-08-20T05:43:59;94243.63;;;27.80;47.17
36932;BME280;22847;42.654;23.370;2022-08-20T05:46:29;94225.75;;;28.06;46.48
36932;BME280;22847;42.654;23.370;2022-08-20T05:48:55;94261.13;;;29.11;44.21
36932;BME280;22847;42.654;23.370;2022-08-20T05:51:21;94283.41;;;29.62;43.67
36932;BME280;22847;42.654;23.370;2022-08-20T05:53:46;94237.41;;;29.79;42.84
36932;BME280;22847;42.654;23.370;2022-08-20T05:56:12;94166.94;;;29.92;41.70
36932;BME280;22847;42.654;23.370;2022-08-20T05:58:37;94298.94;;;30.70;41.02
36932;BME280;22847;42.654;23.370;2022-08-20T06:01:03;94205.38;;;29.97;42.21
36932;BME280;22847;42.654;23.370;2022-08-20T06:03:29;94065.00;;;29.46;41.59
36932;BME280;22847;42.654;23.370;2022-08-20T06:06:13;94192.75;;;29.98;42.01
36932;BME280;22847;42.654;23.370;2022-08-20T06:08:39;94214.69;;;30.20;41.98
36932;BME280;22847;42.654;23.370;2022-08-20T06:11:05;94244.69;;;30.42;41.91
36932;BME280;22847;42.654;23.370;2022-08-20T06:13:31;94079.28;;;29.37;42.25
36932;BME280;22847;42.654;23.370;2022-08-20T06:15:56;94179.72;;;30.15;41.97
36932;BME280;22847;42.654;23.370;2022-08-20T06:18:23;94247.00;;;31.03;40.67
36932;BME280;22847;42.654;23.370;2022-08-20T06:20:49;94160.50;;;30.76;40.60
36932;BME280;22847;42.654;23.370;2022-08-20T06:23:15;94108.28;;;30.72;40.08
36932;BME280;22847;42.654;23.370;2022-08-20T06:25:40;94275.38;;;32.11;38.84
36932;BME280;22847;42.654;23.370;2022-08-20T06:28:06;94252.28;;;32.00;38.38
36932;BME280;22847;42.654;23.370;2022-08-20T06:30:32;94267.78;;;32.37;38.57
36932;BME280;22847;42.654;23.370;2022-08-20T06:32:58;94266.50;;;32.53;38.93
36932;BME280;22847;42.654;23.370;2022-08-20T06:35:23;94113.81;;;31.67;38.58
36932;BME280;22847;42.654;23.370;2022-08-20T06:37:49;94213.50;;;32.19;38.47
36932;BME280;22847;42.654;23.370;2022-08-20T06:40:20;94253.84;;;32.72;37.73
36932;BME280;22847;42.654;23.370;2022-08-20T06:42:47;94265.91;;;32.56;37.85
36932;BME280;22847;42.654;23.370;2022-08-20T06:45:15;94195.56;;;32.10;37.88
36932;BME280;22847;42.654;23.370;2022-08-20T06:47:43;94273.75;;;32.33;38.28
36932;BME280;22847;42.654;23.370;2022-08-20T06:50:11;94240.25;;;32.16;37.91
36932;BME280;22847;42.654;23.370;2022-08-20T06:52:39;94247.28;;;32.36;37.53
36932;BME280;22847;42.654;23.370;2022-08-20T06:55:06;94223.66;;;32.27;38.02
36932;BME280;22847;42.654;23.370;2022-08-20T06:57:34;94201.31;;;32.22;36.74
36932;BME280;22847;42.654;23.370;2022-08-20T06:59:59;94084.16;;;31.43;37.45
36932;BME280;22847;42.654;23.370;2022-08-20T07:02:25;94234.81;;;32.40;37.27
36932;BME280;22847;42.654;23.370;2022-08-20T07:04:50;94235.81;;;32.67;36.70
36932;BME280;22847;42.654;23.370;2022-08-20T07:07:16;94214.97;;;32.07;37.49
36932;BME280;22847;42.654;23.370;2022-08-20T07:09:42;94063.47;;;30.23;39.06
36932;BME280;22847;42.654;23.370;2022-08-20T07:12:08;94251.75;;;31.45;38.45
36932;BME280;22847;42.654;23.370;2022-08-20T07:14:34;94253.28;;;31.27;39.32
36932;BME280;22847;42.654;23.370;2022-08-20T07:17:02;94220.28;;;31.69;38.50
36932;BME280;22847;42.654;23.370;2022-08-20T07:19:27;94222.78;;;31.84;38.29
36932;BME280;22847;42.654;23.370;2022-08-20T07:21:53;94231.66;;;32.14;37.71
36932;BME280;22847;42.654;23.370;2022-08-20T07:24:18;94252.44;;;30.98;40.09
36932;BME280;22847;42.654;23.370;2022-08-20T07:26:44;94231.19;;;31.25;39.78
36932;BME280;22847;42.654;23.370;2022-08-20T07:29:09;94207.09;;;31.92;38.64
36932;BME280;22847;42.654;23.370;2022-08-20T07:31:35;94105.06;;;31.56;37.69
36932;BME280;22847;42.654;23.370;2022-08-20T07:34:19;94164.88;;;32.01;38.05
36932;BME280;22847;42.654;23.370;2022-08-20T07:36:44;94250.03;;;32.73;36.68
36932;BME280;22847;42.654;23.370;2022-08-20T07:39:13;94232.81;;;32.69;36.73
36932;BME280;22847;42.654;23.370;2022-08-20T07:41:39;94193.53;;;32.58;36.88
36932;BME280;22847;42.654;23.370;2022-08-20T07:44:04;94217.31;;;32.93;36.77
36932;BME280;22847;42.654;23.370;2022-08-20T07:46:30;94184.72;;;32.71;36.90
36932;BME280;22847;42.654;23.370;2022-08-20T07:48:55;94230.47;;;32.81;37.18
36932;BME280;22847;42.654;23.370;2022-08-20T07:51:21;94026.06;;;32.12;35.43
36932;BME280;22847;42.654;23.370;2022-08-20T07:53:48;94209.50;;;32.92;35.96
36932;BME280;22847;42.654;23.370;2022-08-20T07:56:16;94107.75;;;32.17;35.82
36932;BME280;22847;42.654;23.370;2022-08-20T07:58:49;94235.50;;;33.39;35.29
36932;BME280;22847;42.654;23.370;2022-08-20T08:01:16;94215.59;;;33.48;35.16
36932;BME280;22847;42.654;23.370;2022-08-20T08:03:41;94196.56;;;33.53;35.26
36932;BME280;22847;42.654;23.370;2022-08-20T08:06:07;94170.25;;;33.59;34.62
36932;BME280;22847;42.654;23.370;2022-08-20T08:08:34;94206.72;;;33.75;34.70
36932;BME280;22847;42.654;23.370;2022-08-20T08:11:01;94033.59;;;31.54;36.74
36932;BME280;22847;42.654;23.370;2022-08-20T08:13:31;94035.34;;;32.06;35.81
36932;BME280;22847;42.654;23.370;2022-08-20T08:15:59;94212.56;;;33.36;35.61
36932;BME280;22847;42.654;23.370;2022-08-20T08:18:30;94204.97;;;33.52;34.83
36932;BME280;22847;42.654;23.370;2022-08-20T08:20:58;94196.06;;;33.65;34.81
36932;BME280;22847;42.654;23.370;2022-08-20T08:23:24;94207.34;;;33.07;35.71
36932;BME280;22847;42.654;23.370;2022-08-20T08:25:50;94183.91;;;33.22;36.08
36932;BME280;22847;42.654;23.370;2022-08-20T08:28:17;94220.75;;;34.04;35.10
36932;BME280;22847;42.654;23.370;2022-08-20T08:30:43;94179.09;;;32.67;36.55
36932;BME280;22847;42.654;23.370;2022-08-20T08:33:26;94186.66;;;33.49;35.62
36932;BME280;22847;42.654;23.370;2022-08-20T08:35:56;94153.28;;;33.40;35.61
36932;BME280;22847;42.654;23.370;2022-08-20T08:38:22;94153.38;;;33.35;35.29
36932;BME280;22847;42.654;23.370;2022-08-20T08:40:49;94043.03;;;32.96;35.18
36932;BME280;22847;42.654;23.370;2022-08-20T08:43:20;94006.09;;;32.45;35.64
36932;BME280;22847;42.654;23.370;2022-08-20T08:45:52;94179.44;;;33.58;35.58
36932;BME280;22847;42.654;23.370;2022-08-20T08:48:19;94159.03;;;33.93;35.33
36932;BME280;22847;42.654;23.370;2022-08-20T08:50:48;94155.28;;;34.16;33.88
36932;BME280;22847;42.654;23.370;2022-08-20T08:53:25;94007.41;;;33.35;33.24
36932;BME280;22847;42.654;23.370;2022-08-20T08:55:52;94170.81;;;34.38;33.73
36932;BME280;22847;42.654;23.370;2022-08-20T08:58:18;94162.13;;;33.13;35.72
36932;BME280;22847;42.654;23.370;2022-08-20T09:00:44;94164.13;;;33.07;35.95
36932;BME280;22847;42.654;23.370;2022-08-20T09:03:16;93999.81;;;32.50;35.21
36932;BME280;22847;42.654;23.370;2022-08-20T09:05:48;94098.28;;;32.71;35.85
36932;BME280;22847;42.654;23.370;2022-08-20T09:08:17;94153.66;;;33.19;36.16
36932;BME280;22847;42.654;23.370;2022-08-20T09:10:45;94140.16;;;33.19;36.05
36932;BME280;22847;42.654;23.370;2022-08-20T09:13:11;94127.75;;;33.87;34.68
36932;BME280;22847;42.654;23.370;2022-08-20T09:15:37;94142.84;;;34.15;34.12
36932;BME280;22847;42.654;23.370;2022-08-20T09:18:02;94018.63;;;33.42;34.00
36932;BME280;22847;42.654;23.370;2022-08-20T09:20:28;94166.00;;;34.35;33.71
36932;BME280;22847;42.654;23.370;2022-08-20T09:22:54;94172.34;;;34.66;33.44
36932;BME280;22847;42.654;23.370;2022-08-20T09:25:19;93972.03;;;33.94;32.70
36932;BME280;22847;42.654;23.370;2022-08-20T09:27:45;94161.03;;;34.50;33.92
36932;BME280;22847;42.654;23.370;2022-08-20T09:30:12;94140.84;;;34.70;33.66
36932;BME280;22847;42.654;23.370;2022-08-20T09:32:37;94177.94;;;34.34;33.33
36932;BME280;22847;42.654;23.370;2022-08-20T09:35:03;94078.69;;;33.80;33.68
36932;BME280;22847;42.654;23.370;2022-08-20T09:37:30;94130.00;;;34.34;33.22
36932;BME280;22847;42.654;23.370;2022-08-20T09:39:57;94168.03;;;34.16;33.72
36932;BME280;22847;42.654;23.370;2022-08-20T09:42:28;93971.38;;;32.98;33.44
36932;BME280;22847;42.654;23.370;2022-08-20T09:44:55;94150.63;;;34.80;32.74
36932;BME280;22847;42.654;23.370;2022-08-20T09:47:21;94152.91;;;35.40;32.22
36932;BME280;22847;42.654;23.370;2022-08-20T09:49:47;94154.03;;;35.39;31.72
36932;BME280;22847;42.654;23.370;2022-08-20T09:52:22;93972.66;;;34.58;30.59
36932;BME280;22847;42.654;23.370;2022-08-20T09:54:50;94133.69;;;34.38;33.36
36932;BME280;22847;42.654;23.370;2022-08-20T09:57:17;94129.75;;;35.03;31.67
36932;BME280;22847;42.654;23.370;2022-08-20T09:59:44;94120.56;;;35.12;31.98
36932;BME280;22847;42.654;23.370;2022-08-20T10:02:12;93958.13;;;34.10;31.29
36932;BME280;22847;42.654;23.370;2022-08-20T10:04:37;93977.97;;;34.19;30.92
36932;BME280;22847;42.654;23.370;2022-08-20T10:07:06;94113.00;;;35.31;31.13
36932;BME280;22847;42.654;23.370;2022-08-20T10:09:33;93955.72;;;34.53;30.60
36932;BME280;22847;42.654;23.370;2022-08-20T10:11:59;94013.88;;;34.77;31.19
36932;BME280;22847;42.654;23.370;2022-08-20T10:14:25;94126.94;;;35.78;30.75
36932;BME280;22847;42.654;23.370;2022-08-20T10:16:58;93849.13;;;34.40;30.51
36932;BME280;22847;42.654;23.370;2022-08-20T10:19:24;94129.75;;;35.64;30.19
36932;BME280;22847;42.654;23.370;2022-08-20T10:21:51;93958.56;;;34.47;29.68
36932;BME280;22847;42.654;23.370;2022-08-20T10:24:18;94071.31;;;35.19;29.41
36932;BME280;22847;42.654;23.370;2022-08-20T10:26:44;93943.69;;;34.36;29.51
36932;BME280;22847;42.654;23.370;2022-08-20T10:29:10;94095.53;;;35.55;30.25
36932;BME280;22847;42.654;23.370;2022-08-20T10:31:35;94108.50;;;35.27;30.03
36932;BME280;22847;42.654;23.370;2022-08-20T10:34:00;94095.66;;;35.41;30.12
36932;BME280;22847;42.654;23.370;2022-08-20T10:36:26;94068.69;;;35.36;30.08
36932;BME280;22847;42.654;23.370;2022-08-20T10:38:51;94088.59;;;35.31;29.97
36932;BME280;22847;42.654;23.370;2022-08-20T10:41:17;94101.44;;;35.48;29.39
36932;BME280;22847;42.654;23.370;2022-08-20T10:43:44;93985.78;;;35.13;29.09
36932;BME280;22847;42.654;23.370;2022-08-20T10:46:09;94140.44;;;36.17;29.57
36932;BME280;22847;42.654;23.370;2022-08-20T10:48:35;94097.59;;;35.89;30.30
36932;BME280;22847;42.654;23.370;2022-08-20T10:51:00;93976.16;;;34.89;30.68
36932;BME280;22847;42.654;23.370;2022-08-20T10:53:26;94098.03;;;35.73;30.46
36932;BME280;22847;42.654;23.370;2022-08-20T10:55:53;93949.13;;;35.07;30.20
36932;BME280;22847;42.654;23.370;2022-08-20T10:58:19;94100.13;;;35.85;29.93
36932;BME280;22847;42.654;23.370;2022-08-20T11:00:44;94087.75;;;36.27;29.44
36932;BME280;22847;42.654;23.370;2022-08-20T11:03:10;94079.38;;;35.89;29.34
36932;BME280;22847;42.654;23.370;2022-08-20T11:05:36;94047.03;;;35.53;29.87
36932;BME280;22847;42.654;23.370;2022-08-20T11:08:03;94109.72;;;35.43;30.31
36932;BME280;22847;42.654;23.370;2022-08-20T11:10:30;94084.00;;;35.10;30.62
36932;BME280;22847;42.654;23.370;2022-08-20T11:12:58;94081.69;;;34.94;31.49
36932;BME280;22847;42.654;23.370;2022-08-20T11:15:24;94100.13;;;34.84;31.13
36932;BME280;22847;42.654;23.370;2022-08-20T11:17:50;94070.97;;;34.81;32.00
36932;BME280;22847;42.654;23.370;2022-08-20T11:20:17;93894.81;;;33.66;31.07
36932;BME280;22847;42.654;23.370;2022-08-20T11:22:43;94049.38;;;34.98;31.71
36932;BME280;22847;42.654;23.370;2022-08-20T11:25:09;93901.78;;;34.34;30.66
36932;BME280;22847;42.654;23.370;2022-08-20T11:27:38;94063.84;;;35.72;30.07
36932;BME280;22847;42.654;23.370;2022-08-20T11:30:06;93918.75;;;34.87;29.70
36932;BME280;22847;42.654;23.370;2022-08-20T11:32:32;94064.56;;;35.39;30.72
36932;BME280;22847;42.654;23.370;2022-08-20T11:34:58;94039.03;;;35.09;29.74
36932;BME280;22847;42.654;23.370;2022-08-20T11:37:23;94034.47;;;34.87;29.96
36932;BME280;22847;42.654;23.370;2022-08-20T11:39:50;94032.94;;;34.50;30.56
36932;BME280;22847;42.654;23.370;2022-08-20T11:42:15;93987.03;;;34.00;30.37
36932;BME280;22847;42.654;23.370;2022-08-20T11:44:41;93991.00;;;34.39;31.06
36932;BME280;22847;42.654;23.370;2022-08-20T11:47:07;93995.84;;;34.50;30.31
36932;BME280;22847;42.654;23.370;2022-08-20T11:49:35;94026.44;;;34.29;30.76
36932;BME280;22847;42.654;23.370;2022-08-20T11:52:01;94002.69;;;34.03;30.51
36932;BME280;22847;42.654;23.370;2022-08-20T11:54:28;93843.56;;;32.75;31.24
36932;BME280;22847;42.654;23.370;2022-08-20T11:56:54;93990.00;;;33.90;30.61
36932;BME280;22847;42.654;23.370;2022-08-20T11:59:22;93877.56;;;33.62;30.77
36932;BME280;22847;42.654;23.370;2022-08-20T12:01:48;94009.28;;;34.86;30.26
36932;BME280;22847;42.654;23.370;2022-08-20T12:04:13;94028.50;;;34.99;28.61
36932;BME280;22847;42.654;23.370;2022-08-20T12:06:39;93988.69;;;34.55;28.71
36932;BME280;22847;42.654;23.370;2022-08-20T12:09:04;94025.53;;;34.33;30.06
36932;BME280;22847;42.654;23.370;2022-08-20T12:11:29;94012.78;;;34.34;28.68
36932;BME280;22847;42.654;23.370;2022-08-20T12:13:55;94005.44;;;33.90;29.10
36932;BME280;22847;42.654;23.370;2022-08-20T12:16:20;93987.13;;;33.59;29.21
36932;BME280;22847;42.654;23.370;2022-08-20T12:18:47;94024.97;;;33.87;30.97
36932;BME280;22847;42.654;23.370;2022-08-20T12:21:12;93862.75;;;32.74;29.77
36932;BME280;22847;42.654;23.370;2022-08-20T12:23:38;93749.97;;;31.89;30.55
36932;BME280;22847;42.654;23.370;2022-08-20T12:26:04;94026.31;;;33.62;30.00
36932;BME280;22847;42.654;23.370;2022-08-20T12:28:30;94035.81;;;33.73;30.13
36932;BME280;22847;42.654;23.370;2022-08-20T12:30:56;94054.06;;;33.54;30.83
36932;BME280;22847;42.654;23.370;2022-08-20T12:33:22;93996.63;;;33.21;32.88
36932;BME280;22847;42.654;23.370;2022-08-20T12:35:47;94056.75;;;32.99;33.24
36932;BME280;22847;42.654;23.370;2022-08-20T12:38:13;93904.59;;;31.66;39.87
36932;BME280;22847;42.654;23.370;2022-08-20T12:40:38;93880.84;;;29.98;44.95
36932;BME280;22847;42.654;23.370;2022-08-20T12:43:04;93957.66;;;29.70;47.19
36932;BME280;22847;42.654;23.370;2022-08-20T12:45:31;94122.28;;;29.96;52.05
36932;BME280;22847;42.654;23.370;2022-08-20T12:48:09;93971.38;;;28.40;55.23
36932;BME280;22847;42.654;23.370;2022-08-20T12:50:35;94109.75;;;28.61;56.12
36932;BME280;22847;42.654;23.370;2022-08-20T12:53:02;93965.47;;;28.08;52.66
36932;BME280;22847;42.654;23.370;2022-08-20T12:55:28;93675.50;;;26.50;56.50